Time;durP1;ratioP1;P1;durP2;ratioP2;P2;SDS_P1;SDS_P2;PMS_P1;PMS_P2;Temp;Humidity;BMP_temperature;BMP_pressure;BME280_temperature;BME280_humidity;BME280_pressure;Samples;Min_cycle;Max_cycle;Signal;HPM_P1;HPM_P2
2020/12/31 08:13:04;;;;;;;1.40;0.70;;;;;;;;;;4878491;29;20049;-19
2020/12/31 08:15:31;;;;;;;1.15;0.85;;;;;;;;;;4878565;29;20029;-19
2020/12/31 08:17:57;;;;;;;1.02;0.70;;;;;;;;;;4878630;29;20115;-22
2020/12/31 08:20:34;;;;;;;1.60;0.75;;;;;;;;;;4862192;29;20032;-22
2020/12/31 08:23:03;;;;;;;2.28;1.00;;;;;;;;;;4878542;29;20406;-21
2020/12/31 08:25:40;;;;;;;1.70;1.23;;;;;;;;;;4878924;29;20056;-20
2020/12/31 08:28:07;;;;;;;2.15;0.90;;;;;;;;;;4878445;29;20044;-21
2020/12/31 08:30:36;;;;;;;2.28;0.80;;;;;;;;;;4861854;29;20028;-20
2020/12/31 08:33:02;;;;;;;4.32;1.20;;;;;;;;;;4878261;29;20049;-22
2020/12/31 08:35:38;;;;;;;1.90;1.17;;;;;;;;;;4878579;29;20044;-20
2020/12/31 08:38:17;;;;;;;1.40;0.75;;;;;;;;;;4881525;29;20052;-22
2020/12/31 08:40:44;;;;;;;1.77;1.00;;;;;;;;;;4882160;29;20029;-20
2020/12/31 08:43:29;;;;;;;0.90;0.68;;;;;;;;;;4865501;29;20463;-21
2020/12/31 08:45:59;;;;;;;4.05;1.02;;;;;;;;;;4865786;29;20168;-20
2020/12/31 08:48:24;;;;;;;1.05;0.50;;;;;;;;;;4882321;29;20029;-21
2020/12/31 08:51:02;;;;;;;4.15;1.00;;;;;;;;;;4865682;29;20361;-22
2020/12/31 08:53:28;;;;;;;0.43;0.30;;;;;;;;;;4882039;29;20076;-25
2020/12/31 08:55:55;;;;;;;0.93;0.55;;;;;;;;;;4881758;29;20468;-25
2020/12/31 08:58:31;;;;;;;0.70;0.60;;;;;;;;;;4785635;29;10000438;-21
2020/12/31 09:00:57;;;;;;;0.75;0.63;;;;;;;;;;4877473;29;20291;-19
2020/12/31 09:03:24;;;;;;;1.50;1.40;;;;;;;;;;4877727;29;20025;-19
2020/12/31 09:06:04;;;;;;;1.05;1.05;;;;;;;;;;4861522;29;20058;-20
2020/12/31 09:08:33;;;;;;;1.27;1.10;;;;;;;;;;4878081;29;20037;-22
2020/12/31 09:11:05;;;;;;;1.35;1.20;;;;;;;;;;4882394;29;20158;-19
2020/12/31 09:13:33;;;;;;;0.50;0.40;;;;;;;;;;4897095;29;20037;-20
2020/12/31 09:16:12;;;;;;;1.27;0.43;;;;;;;;;;4897173;29;20455;-19
2020/12/31 09:18:39;;;;;;;1.30;0.57;;;;;;;;;;4897050;29;20115;-20
2020/12/31 09:21:04;;;;;;;1.33;0.70;;;;;;;;;;4897066;29;20027;-20
2020/12/31 09:23:30;;;;;;;0.95;0.90;;;;;;;;;;4896656;29;20028;-18
2020/12/31 09:25:56;;;;;;;0.40;0.30;;;;;;;;;;4897393;29;20108;-19
2020/12/31 09:28:24;;;;;;;1.10;0.82;;;;;;;;;;4897204;29;20047;-20
2020/12/31 09:30:50;;;;;;;0.55;0.35;;;;;;;;;;4897305;29;20048;-21
2020/12/31 09:33:17;;;;;;;1.70;1.15;;;;;;;;;;4896036;29;20404;-20
2020/12/31 09:35:43;;;;;;;0.85;0.30;;;;;;;;;;4896415;29;20132;-19
2020/12/31 09:38:08;;;;;;;2.45;1.13;;;;;;;;;;4879761;29;20384;-20
2020/12/31 09:40:34;;;;;;;0.80;0.43;;;;;;;;;;4896591;29;20036;-18
2020/12/31 09:42:59;;;;;;;0.98;0.60;;;;;;;;;;4896869;29;20428;-18
2020/12/31 09:45:25;;;;;;;0.35;0.30;;;;;;;;;;4896596;29;20017;-18
2020/12/31 09:47:51;;;;;;;0.90;0.60;;;;;;;;;;4878902;29;20043;-19
2020/12/31 09:50:16;;;;;;;0.95;0.70;;;;;;;;;;4878863;29;20029;-18
2020/12/31 09:52:42;;;;;;;0.93;0.70;;;;;;;;;;4896577;29;20488;-18
2020/12/31 09:55:07;;;;;;;1.35;0.80;;;;;;;;;;4879777;29;20122;-19
2020/12/31 09:57:36;;;;;;;1.25;0.52;;;;;;;;;;4879610;29;20032;-20
2020/12/31 10:00:03;;;;;;;2.63;0.90;;;;;;;;;;4895748;29;20024;-20
2020/12/31 10:02:37;;;;;;;1.17;0.50;;;;;;;;;;4895960;29;20040;-19
2020/12/31 10:05:02;;;;;;;0.90;0.65;;;;;;;;;;4879048;29;20073;-19
2020/12/31 10:07:28;;;;;;;1.25;0.70;;;;;;;;;;4896274;29;20048;-19
2020/12/31 10:09:53;;;;;;;1.45;0.80;;;;;;;;;;4895509;29;20119;-19
2020/12/31 10:12:19;;;;;;;2.28;0.65;;;;;;;;;;4878492;29;20048;-19
2020/12/31 10:14:46;;;;;;;0.50;0.50;;;;;;;;;;4879207;29;20048;-18
2020/12/31 10:17:11;;;;;;;0.50;0.50;;;;;;;;;;4896416;29;20029;-18
2020/12/31 10:19:37;;;;;;;0.75;0.50;;;;;;;;;;4896701;29;20092;-18
2020/12/31 10:22:03;;;;;;;0.75;0.50;;;;;;;;;;4878533;29;20302;-18
2020/12/31 10:24:28;;;;;;;0.52;0.52;;;;;;;;;;4895385;29;20043;-18
2020/12/31 10:26:54;;;;;;;1.35;0.70;;;;;;;;;;4878748;29;20021;-18
2020/12/31 10:29:19;;;;;;;0.88;0.30;;;;;;;;;;4878198;29;20039;-18
2020/12/31 10:31:55;;;;;;;1.67;0.50;;;;;;;;;;4878565;29;20032;-18
2020/12/31 10:34:24;;;;;;;1.40;0.57;;;;;;;;;;4878226;29;20051;-19
2020/12/31 10:36:53;;;;;;;1.52;0.93;;;;;;;;;;4895151;29;20031;-23
2020/12/31 10:39:18;;;;;;;2.00;0.80;;;;;;;;;;4895503;29;20032;-18
2020/12/31 10:41:45;;;;;;;1.42;0.90;;;;;;;;;;4895275;29;20079;-18
2020/12/31 10:44:10;;;;;;;0.63;0.50;;;;;;;;;;4895274;29;20029;-19
2020/12/31 10:46:36;;;;;;;0.45;0.40;;;;;;;;;;4877894;29;20329;-20
2020/12/31 10:49:01;;;;;;;1.35;0.60;;;;;;;;;;4894880;29;20479;-20
2020/12/31 10:51:26;;;;;;;0.77;0.60;;;;;;;;;;4895035;29;20048;-19
2020/12/31 10:53:52;;;;;;;0.47;0.43;;;;;;;;;;4878296;29;20075;-20
2020/12/31 10:56:18;;;;;;;0.63;0.57;;;;;;;;;;4894894;29;20084;-18
2020/12/31 10:58:44;;;;;;;1.27;0.50;;;;;;;;;;4889357;29;20045;-20
2020/12/31 11:01:12;;;;;;;0.70;0.50;;;;;;;;;;4894740;29;20052;-18
2020/12/31 11:03:37;;;;;;;0.55;0.40;;;;;;;;;;4894990;29;20475;-19
2020/12/31 11:06:03;;;;;;;0.93;0.47;;;;;;;;;;4895025;29;20021;-21
2020/12/31 11:08:28;;;;;;;1.88;0.75;;;;;;;;;;4894791;29;20563;-20
2020/12/31 11:10:54;;;;;;;1.20;0.60;;;;;;;;;;4894077;29;20180;-21
2020/12/31 11:13:19;;;;;;;0.80;0.65;;;;;;;;;;4894949;29;20455;-19
2020/12/31 11:15:45;;;;;;;0.57;0.57;;;;;;;;;;4894889;29;20372;-20
2020/12/31 11:18:10;;;;;;;1.48;0.50;;;;;;;;;;4894279;29;20040;-20
2020/12/31 11:20:35;;;;;;;0.75;0.60;;;;;;;;;;4894295;29;20502;-20
2020/12/31 11:23:01;;;;;;;0.57;0.47;;;;;;;;;;4894164;29;20036;-19
2020/12/31 11:25:26;;;;;;;1.08;0.52;;;;;;;;;;4894413;29;20028;-20
2020/12/31 11:27:52;;;;;;;0.65;0.60;;;;;;;;;;4894523;29;20044;-20
2020/12/31 11:30:17;;;;;;;1.48;1.13;;;;;;;;;;4894260;29;20024;-19
2020/12/31 11:32:42;;;;;;;0.80;0.65;;;;;;;;;;4894349;29;20040;-19
2020/12/31 11:35:08;;;;;;;0.77;0.50;;;;;;;;;;4893633;29;20768;-20
2020/12/31 11:37:33;;;;;;;1.10;1.00;;;;;;;;;;4877407;29;20028;-19
2020/12/31 11:39:59;;;;;;;3.63;0.70;;;;;;;;;;4893898;29;20032;-23
2020/12/31 11:42:25;;;;;;;1.05;0.68;;;;;;;;;;4894451;29;20115;-19
2020/12/31 11:44:51;;;;;;;1.17;0.55;;;;;;;;;;4877763;29;20029;-19
2020/12/31 11:47:16;;;;;;;1.30;0.70;;;;;;;;;;4894064;29;20029;-21
2020/12/31 11:49:42;;;;;;;4.97;1.00;;;;;;;;;;4894488;29;20029;-21
2020/12/31 11:52:07;;;;;;;5.25;0.93;;;;;;;;;;4894400;29;20032;-18
2020/12/31 11:54:33;;;;;;;0.93;0.57;;;;;;;;;;4894137;29;20036;-19
2020/12/31 11:56:58;;;;;;;1.75;1.00;;;;;;;;;;4877530;29;20080;-28
2020/12/31 11:59:24;;;;;;;1.45;0.80;;;;;;;;;;4887010;29;20570;-19
2020/12/31 12:01:52;;;;;;;0.70;0.70;;;;;;;;;;4875728;29;20057;-20
2020/12/31 12:04:19;;;;;;;2.05;0.88;;;;;;;;;;4875890;29;20052;-20
2020/12/31 12:06:54;;;;;;;1.83;1.10;;;;;;;;;;4875587;29;20040;-20
2020/12/31 12:09:20;;;;;;;2.78;1.20;;;;;;;;;;4875690;29;20445;-21
2020/12/31 12:11:46;;;;;;;1.17;0.95;;;;;;;;;;4884125;29;20056;-21
2020/12/31 12:14:11;;;;;;;0.85;0.68;;;;;;;;;;4893722;29;20056;-20
2020/12/31 12:16:38;;;;;;;2.38;1.10;;;;;;;;;;4894310;29;20021;-20
2020/12/31 12:19:04;;;;;;;2.40;0.95;;;;;;;;;;4894074;29;20736;-19
2020/12/31 12:21:29;;;;;;;1.20;1.05;;;;;;;;;;4893870;29;20048;-19
2020/12/31 12:23:55;;;;;;;0.93;0.73;;;;;;;;;;4893808;29;20402;-20
2020/12/31 12:26:20;;;;;;;1.48;0.90;;;;;;;;;;4893835;29;20379;-19
2020/12/31 12:28:46;;;;;;;0.95;0.73;;;;;;;;;;4877067;29;20546;-19
2020/12/31 12:31:11;;;;;;;2.20;1.23;;;;;;;;;;4893568;29;20471;-19
2020/12/31 12:33:36;;;;;;;1.83;0.75;;;;;;;;;;4893895;29;20048;-18
2020/12/31 12:36:03;;;;;;;0.50;0.50;;;;;;;;;;4893325;29;20021;-19
2020/12/31 12:38:28;;;;;;;1.63;0.70;;;;;;;;;;4893970;29;20063;-20
2020/12/31 12:40:53;;;;;;;2.10;1.10;;;;;;;;;;4894105;29;20017;-19
2020/12/31 12:43:19;;;;;;;0.60;0.45;;;;;;;;;;4893990;29;20039;-19
2020/12/31 12:45:44;;;;;;;1.33;0.90;;;;;;;;;;4894014;29;20050;-18
2020/12/31 12:48:10;;;;;;;14.32;1.45;;;;;;;;;;4893338;29;20071;-20
2020/12/31 12:50:35;;;;;;;8.77;4.93;;;;;;;;;;4893819;29;20436;-20
2020/12/31 12:53:01;;;;;;;19.42;1.65;;;;;;;;;;4893765;29;20131;-20
2020/12/31 12:55:26;;;;;;;0.90;0.70;;;;;;;;;;4893699;29;20017;-19
2020/12/31 12:57:52;;;;;;;0.55;0.55;;;;;;;;;;4893770;29;20040;-21
2020/12/31 13:00:17;;;;;;;0.77;0.50;;;;;;;;;;4893653;29;20021;-20
2020/12/31 13:02:43;;;;;;;0.73;0.70;;;;;;;;;;4876741;29;20068;-19
2020/12/31 13:05:08;;;;;;;0.65;0.65;;;;;;;;;;4893858;29;20025;-18
2020/12/31 13:07:34;;;;;;;0.95;0.60;;;;;;;;;;4894038;29;20036;-19
2020/12/31 13:09:59;;;;;;;1.13;0.70;;;;;;;;;;4877039;29;20434;-18
2020/12/31 13:12:25;;;;;;;0.95;0.60;;;;;;;;;;4893189;29;20120;-19
2020/12/31 13:14:50;;;;;;;0.80;0.70;;;;;;;;;;4861139;29;20044;-18
2020/12/31 13:17:16;;;;;;;0.95;0.75;;;;;;;;;;4893278;29;20031;-20
2020/12/31 13:19:42;;;;;;;1.35;0.70;;;;;;;;;;4893145;29;20119;-19
2020/12/31 13:22:07;;;;;;;1.00;0.80;;;;;;;;;;4875930;29;20379;-19
2020/12/31 13:24:33;;;;;;;1.13;0.60;;;;;;;;;;4896740;29;20028;-18
2020/12/31 13:26:58;;;;;;;2.00;1.20;;;;;;;;;;4896902;29;20033;-21
2020/12/31 13:29:23;;;;;;;1.08;0.60;;;;;;;;;;4879924;29;20039;-19
2020/12/31 13:31:49;;;;;;;1.35;0.90;;;;;;;;;;4896751;29;20113;-18
2020/12/31 13:34:14;;;;;;;1.45;1.00;;;;;;;;;;4896031;29;20033;-18
2020/12/31 13:36:40;;;;;;;2.03;1.17;;;;;;;;;;4896396;29;20131;-21
2020/12/31 13:39:05;;;;;;;3.60;1.08;;;;;;;;;;4896351;29;20029;-20
2020/12/31 13:41:31;;;;;;;1.35;0.73;;;;;;;;;;4896540;29;20753;-18
2020/12/31 13:43:57;;;;;;;3.03;0.95;;;;;;;;;;4896387;29;20056;-19
2020/12/31 13:46:22;;;;;;;1.05;0.93;;;;;;;;;;4896256;29;20020;-18
2020/12/31 13:48:47;;;;;;;1.80;1.05;;;;;;;;;;4896596;29;20025;-19
2020/12/31 13:51:16;;;;;;;0.93;0.77;;;;;;;;;;4896356;29;20160;-19
2020/12/31 13:53:42;;;;;;;3.60;1.20;;;;;;;;;;4896554;29;20052;-19
2020/12/31 13:56:08;;;;;;;1.25;0.80;;;;;;;;;;4896159;29;20059;-19
2020/12/31 13:58:33;;;;;;;1.23;0.80;;;;;;;;;;4896265;29;20485;-18
2020/12/31 14:00:59;;;;;;;1.13;0.50;;;;;;;;;;4878884;29;20562;-19
2020/12/31 14:03:24;;;;;;;2.13;1.02;;;;;;;;;;4879018;29;20025;-15
2020/12/31 14:05:50;;;;;;;0.73;0.60;;;;;;;;;;4895720;29;20047;-15
2020/12/31 14:08:15;;;;;;;1.02;0.75;;;;;;;;;;4896064;29;20077;-15
2020/12/31 14:10:41;;;;;;;1.58;0.80;;;;;;;;;;4895599;29;20037;-16
2020/12/31 14:13:06;;;;;;;0.55;0.52;;;;;;;;;;4895900;29;20494;-15
2020/12/31 14:15:32;;;;;;;1.50;0.80;;;;;;;;;;4878914;29;20555;-16
2020/12/31 14:17:58;;;;;;;0.95;0.80;;;;;;;;;;4878801;29;20016;-16
2020/12/31 14:20:23;;;;;;;1.73;0.93;;;;;;;;;;4895711;29;20098;-16
2020/12/31 14:22:49;;;;;;;1.35;0.90;;;;;;;;;;4895218;29;20485;-16
2020/12/31 14:25:14;;;;;;;2.17;0.90;;;;;;;;;;4896104;29;20746;-19
2020/12/31 14:27:39;;;;;;;7.38;2.90;;;;;;;;;;4896141;29;20455;-16
2020/12/31 14:30:05;;;;;;;1.17;0.77;;;;;;;;;;4895502;29;20039;-16
2020/12/31 14:32:31;;;;;;;1.95;1.00;;;;;;;;;;4895559;29;20468;-16
2020/12/31 14:34:57;;;;;;;1.10;0.90;;;;;;;;;;4895026;29;20116;-16
2020/12/31 14:37:24;;;;;;;1.17;0.90;;;;;;;;;;4895949;29;20496;-16
2020/12/31 14:39:49;;;;;;;1.48;0.80;;;;;;;;;;4895813;29;20028;-16
2020/12/31 14:42:14;;;;;;;1.70;1.20;;;;;;;;;;4895621;29;20091;-16
2020/12/31 14:44:40;;;;;;;2.75;1.13;;;;;;;;;;4895643;29;20032;-22
2020/12/31 14:47:06;;;;;;;2.03;1.00;;;;;;;;;;4878540;29;20612;-16
2020/12/31 14:49:32;;;;;;;1.95;0.90;;;;;;;;;;4895666;29;20077;-16
2020/12/31 14:51:58;;;;;;;2.40;0.98;;;;;;;;;;4895443;29;20032;-16
2020/12/31 14:54:23;;;;;;;2.53;1.38;;;;;;;;;;4878211;29;20044;-16
2020/12/31 14:56:53;;;;;;;2.58;0.90;;;;;;;;;;4895417;29;20034;-16
2020/12/31 14:59:19;;;;;;;1.42;1.00;;;;;;;;;;4877683;29;20111;-16
2020/12/31 15:01:44;;;;;;;2.08;1.05;;;;;;;;;;4894843;29;20404;-16
2020/12/31 15:04:09;;;;;;;2.72;1.05;;;;;;;;;;4895032;29;20037;-16
2020/12/31 15:06:35;;;;;;;1.38;0.90;;;;;;;;;;4894738;29;20031;-16
2020/12/31 15:09:01;;;;;;;1.48;0.82;;;;;;;;;;4877962;29;20124;-16
2020/12/31 15:11:26;;;;;;;1.17;0.98;;;;;;;;;;4894148;29;20058;-16
2020/12/31 15:13:51;;;;;;;1.58;1.02;;;;;;;;;;4877779;29;20056;-16
2020/12/31 15:16:17;;;;;;;2.22;1.08;;;;;;;;;;4894336;29;20021;-16
2020/12/31 15:18:42;;;;;;;1.65;0.85;;;;;;;;;;4894505;29;20033;-16
2020/12/31 15:21:08;;;;;;;1.00;0.80;;;;;;;;;;4877537;29;20021;-16
2020/12/31 15:23:34;;;;;;;1.33;0.90;;;;;;;;;;4901200;29;20036;-17
2020/12/31 15:26:00;;;;;;;0.73;0.60;;;;;;;;;;4894518;29;20025;-16
2020/12/31 15:28:25;;;;;;;1.88;0.90;;;;;;;;;;4877801;29;20417;-16
2020/12/31 15:30:51;;;;;;;1.48;0.77;;;;;;;;;;4894717;29;20056;-16
2020/12/31 15:33:16;;;;;;;4.03;1.10;;;;;;;;;;4894343;29;20123;-16
2020/12/31 15:35:43;;;;;;;1.38;0.77;;;;;;;;;;4900456;29;20460;-16
2020/12/31 15:38:08;;;;;;;1.67;1.00;;;;;;;;;;4893995;29;20042;-16
2020/12/31 15:40:33;;;;;;;1.38;0.80;;;;;;;;;;4894202;29;20020;-16
2020/12/31 15:42:59;;;;;;;1.20;1.02;;;;;;;;;;4894336;29;20111;-16
2020/12/31 15:45:24;;;;;;;2.78;1.38;;;;;;;;;;4893724;29;20027;-17
2020/12/31 15:47:50;;;;;;;0.88;0.70;;;;;;;;;;4893342;29;20035;-16
2020/12/31 15:50:15;;;;;;;1.08;0.88;;;;;;;;;;4894132;29;20078;-16
2020/12/31 15:52:45;;;;;;;1.20;0.90;;;;;;;;;;4894006;29;20048;-16
2020/12/31 15:55:11;;;;;;;3.63;1.10;;;;;;;;;;4893847;29;20032;-16
2020/12/31 15:57:36;;;;;;;1.85;1.00;;;;;;;;;;4893778;29;20032;-16
2020/12/31 16:00:02;;;;;;;1.73;1.27;;;;;;;;;;4893459;29;20072;-15
2020/12/31 16:02:27;;;;;;;2.53;1.08;;;;;;;;;;4893939;29;20032;-17
2020/12/31 16:04:53;;;;;;;0.90;0.80;;;;;;;;;;4893953;29;20021;-16
2020/12/31 16:07:18;;;;;;;2.17;1.05;;;;;;;;;;4876953;29;20538;-16
2020/12/31 16:09:44;;;;;;;4.25;1.65;;;;;;;;;;4893468;29;20020;-16
2020/12/31 16:12:09;;;;;;;1.95;1.10;;;;;;;;;;4876528;29;20059;-16
2020/12/31 16:14:34;;;;;;;1.95;0.90;;;;;;;;;;4893766;29;20797;-16
2020/12/31 16:17:00;;;;;;;2.28;1.48;;;;;;;;;;4877033;29;20032;-16
2020/12/31 16:19:25;;;;;;;2.15;1.20;;;;;;;;;;4894221;29;20411;-16
2020/12/31 16:21:51;;;;;;;2.28;1.48;;;;;;;;;;4894262;29;20032;-16
2020/12/31 16:24:16;;;;;;;1.15;1.05;;;;;;;;;;4893590;29;20035;-16
2020/12/31 16:26:42;;;;;;;2.53;1.08;;;;;;;;;;4861608;29;20048;-16
2020/12/31 16:29:08;;;;;;;2.92;0.82;;;;;;;;;;4893956;29;20036;-16
2020/12/31 16:31:34;;;;;;;2.63;0.68;;;;;;;;;;4894053;29;20032;-16
2020/12/31 16:33:59;;;;;;;2.45;0.88;;;;;;;;;;4893941;29;20426;-16
2020/12/31 16:36:25;;;;;;;1.55;0.70;;;;;;;;;;4893944;29;20046;-16
2020/12/31 16:38:51;;;;;;;1.08;0.77;;;;;;;;;;4893946;29;20024;-17
2020/12/31 16:41:20;;;;;;;2.38;1.10;;;;;;;;;;4893744;29;20535;-17
2020/12/31 16:43:45;;;;;;;4.32;0.77;;;;;;;;;;4893940;29;20385;-17
2020/12/31 16:46:14;;;;;;;1.65;0.82;;;;;;;;;;4883311;29;20051;-17
2020/12/31 16:48:39;;;;;;;5.72;0.70;;;;;;;;;;4912532;29;20044;-16
2020/12/31 16:51:05;;;;;;;2.90;0.63;;;;;;;;;;4884318;29;20092;-16
2020/12/31 16:53:30;;;;;;;10.43;4.38;;;;;;;;;;4877654;29;20068;-16
2020/12/31 16:55:56;;;;;;;1.63;0.88;;;;;;;;;;4893747;29;20635;-16
2020/12/31 16:58:22;;;;;;;0.77;0.57;;;;;;;;;;4895454;29;20121;-17
2020/12/31 17:00:48;;;;;;;3.40;1.35;;;;;;;;;;4897230;29;20123;-17
2020/12/31 17:03:13;;;;;;;1.77;0.80;;;;;;;;;;4897358;29;20025;-17
2020/12/31 17:05:39;;;;;;;1.52;0.98;;;;;;;;;;4880998;29;20381;-17
2020/12/31 17:08:04;;;;;;;1.10;0.70;;;;;;;;;;4897419;29;20052;-17
2020/12/31 17:10:30;;;;;;;0.90;0.65;;;;;;;;;;4880095;29;20025;-19
2020/12/31 17:12:55;;;;;;;1.00;0.80;;;;;;;;;;4880030;29;20044;-17
2020/12/31 17:15:20;;;;;;;0.90;0.65;;;;;;;;;;4897248;29;20598;-17
2020/12/31 17:17:46;;;;;;;1.88;1.42;;;;;;;;;;4880135;29;20168;-17
2020/12/31 17:20:11;;;;;;;0.95;0.63;;;;;;;;;;4896993;29;20182;-17
2020/12/31 17:22:37;;;;;;;1.17;0.98;;;;;;;;;;4880080;29;20127;-17
2020/12/31 17:25:03;;;;;;;0.73;0.52;;;;;;;;;;4896913;29;20084;-17
2020/12/31 17:27:28;;;;;;;1.45;0.80;;;;;;;;;;4897053;29;20029;-17
2020/12/31 17:29:54;;;;;;;1.10;0.77;;;;;;;;;;4896767;29;20517;-17
2020/12/31 17:32:20;;;;;;;1.20;0.80;;;;;;;;;;4896816;29;20035;-17
2020/12/31 17:34:45;;;;;;;1.15;0.98;;;;;;;;;;4896247;29;20052;-17
2020/12/31 17:37:10;;;;;;;1.63;0.65;;;;;;;;;;4879547;29;20068;-17
2020/12/31 17:39:36;;;;;;;1.42;1.08;;;;;;;;;;4879754;29;20088;-17
2020/12/31 17:42:01;;;;;;;1.15;0.75;;;;;;;;;;4896653;29;20380;-17
2020/12/31 17:44:27;;;;;;;2.20;0.80;;;;;;;;;;4896862;29;20039;-17
2020/12/31 17:46:53;;;;;;;1.98;0.90;;;;;;;;;;4879567;29;20032;-18
2020/12/31 17:49:18;;;;;;;4.35;0.98;;;;;;;;;;4879380;29;20127;-16
2020/12/31 17:51:44;;;;;;;1.98;1.27;;;;;;;;;;4879736;29;20025;-16
2020/12/31 17:54:13;;;;;;;1.58;0.75;;;;;;;;;;4896422;29;20075;-16
2020/12/31 17:56:38;;;;;;;0.75;0.75;;;;;;;;;;4896467;29;20024;-16
2020/12/31 17:59:04;;;;;;;3.33;1.00;;;;;;;;;;4878744;29;20033;-16
2020/12/31 18:01:29;;;;;;;1.10;1.00;;;;;;;;;;4895873;29;20482;-16
2020/12/31 18:03:56;;;;;;;2.22;1.05;;;;;;;;;;4896623;29;20028;-16
2020/12/31 18:06:21;;;;;;;1.85;1.17;;;;;;;;;;4879867;29;20031;-16
2020/12/31 18:08:47;;;;;;;4.47;1.52;;;;;;;;;;4895984;29;20033;-16
2020/12/31 18:11:12;;;;;;;1.83;1.02;;;;;;;;;;4895345;29;20108;-16
2020/12/31 18:13:38;;;;;;;1.13;1.02;;;;;;;;;;4896364;29;20096;-17
2020/12/31 18:16:07;;;;;;;2.42;0.93;;;;;;;;;;4896299;29;20123;-16
2020/12/31 18:18:33;;;;;;;1.77;1.00;;;;;;;;;;4896138;29;20444;-16
2020/12/31 18:20:58;;;;;;;1.90;1.17;;;;;;;;;;4896210;29;20017;-21
2020/12/31 18:23:23;;;;;;;1.48;1.00;;;;;;;;;;4895828;29;20036;-16
2020/12/31 18:25:49;;;;;;;1.67;1.00;;;;;;;;;;4895866;29;20479;-16
2020/12/31 18:28:15;;;;;;;1.92;1.40;;;;;;;;;;4896114;29;20177;-17
2020/12/31 18:30:41;;;;;;;5.55;1.55;;;;;;;;;;4896198;29;20020;-18
2020/12/31 18:33:07;;;;;;;3.03;1.25;;;;;;;;;;4895772;29;20483;-16
2020/12/31 18:35:35;;;;;;;2.05;1.38;;;;;;;;;;4878615;29;20025;-17
2020/12/31 18:38:02;;;;;;;1.52;1.15;;;;;;;;;;4878882;29;20040;-17
2020/12/31 18:40:28;;;;;;;2.70;1.48;;;;;;;;;;4895735;29;20463;-16
2020/12/31 18:42:54;;;;;;;1.75;1.40;;;;;;;;;;4895796;29;20458;-16
2020/12/31 18:45:21;;;;;;;4.53;1.20;;;;;;;;;;4895426;29;20116;-16
2020/12/31 18:47:47;;;;;;;3.65;1.50;;;;;;;;;;4895356;29;20047;-16
2020/12/31 18:50:14;;;;;;;2.40;1.95;;;;;;;;;;4878568;29;20029;-16
2020/12/31 18:52:39;;;;;;;4.60;1.50;;;;;;;;;;4895621;29;20036;-16
2020/12/31 18:55:06;;;;;;;1.85;1.25;;;;;;;;;;4895701;29;20040;-16
2020/12/31 18:57:31;;;;;;;1.83;1.30;;;;;;;;;;4879288;29;20072;-16
2020/12/31 18:59:57;;;;;;;2.75;1.50;;;;;;;;;;4878206;29;20491;-16
2020/12/31 19:02:22;;;;;;;1.80;1.20;;;;;;;;;;4895271;29;20511;-16
2020/12/31 19:04:53;;;;;;;2.08;1.60;;;;;;;;;;4895240;29;20441;-16
2020/12/31 19:07:25;;;;;;;1.67;1.40;;;;;;;;;;4892658;29;20040;-16
2020/12/31 19:09:50;;;;;;;2.33;1.33;;;;;;;;;;4894525;29;20088;-16
2020/12/31 19:12:16;;;;;;;5.25;1.50;;;;;;;;;;4894236;29;20190;-16
2020/12/31 19:14:41;;;;;;;5.72;1.77;;;;;;;;;;4893908;29;20119;-16
2020/12/31 19:17:07;;;;;;;2.20;2.00;;;;;;;;;;4894416;29;20033;-16
2020/12/31 19:19:33;;;;;;;1.98;1.77;;;;;;;;;;4894367;29;20037;-18
2020/12/31 19:22:05;;;;;;;3.60;2.10;;;;;;;;;;4895163;29;20056;-24
2020/12/31 19:24:31;;;;;;;2.28;1.52;;;;;;;;;;4894745;29;20111;-16
2020/12/31 19:26:58;;;;;;;1.80;1.50;;;;;;;;;;4878032;29;20132;-17
2020/12/31 19:29:23;;;;;;;3.92;2.40;;;;;;;;;;4877873;29;20035;-16
2020/12/31 19:31:50;;;;;;;5.40;2.25;;;;;;;;;;4894779;29;20111;-17
2020/12/31 19:34:15;;;;;;;2.60;2.15;;;;;;;;;;4894262;29;20499;-16
2020/12/31 19:36:45;;;;;;;8.88;3.03;;;;;;;;;;4894590;29;20076;-17
2020/12/31 19:39:12;;;;;;;3.25;2.40;;;;;;;;;;4877774;29;20036;-17
2020/12/31 19:41:37;;;;;;;5.55;3.13;;;;;;;;;;4895009;29;20027;-16
2020/12/31 19:44:03;;;;;;;4.93;2.97;;;;;;;;;;4877885;29;20033;-26
2020/12/31 19:46:29;;;;;;;5.03;2.33;;;;;;;;;;4894914;29;20035;-17
2020/12/31 19:48:55;;;;;;;6.38;2.63;;;;;;;;;;4894449;29;20032;-17
2020/12/31 19:51:20;;;;;;;3.33;2.22;;;;;;;;;;4894486;29;20072;-17
2020/12/31 19:53:46;;;;;;;7.30;4.47;;;;;;;;;;4894747;29;20100;-17
2020/12/31 19:56:12;;;;;;;3.20;2.30;;;;;;;;;;4894381;29;20116;-16
2020/12/31 19:58:41;;;;;;;3.60;2.42;;;;;;;;;;4877026;29;20112;-19
2020/12/31 20:01:07;;;;;;;2.38;2.00;;;;;;;;;;4893273;29;20499;-17
2020/12/31 20:03:33;;;;;;;4.45;2.03;;;;;;;;;;4894044;29;20439;-18
2020/12/31 20:05:58;;;;;;;3.60;1.83;;;;;;;;;;4894223;29;20025;-16
2020/12/31 20:08:24;;;;;;;3.92;1.95;;;;;;;;;;4893856;29;20055;-17
2020/12/31 20:10:49;;;;;;;2.65;1.92;;;;;;;;;;4876500;29;20045;-17
2020/12/31 20:13:15;;;;;;;2.22;1.50;;;;;;;;;;4893647;29;20067;-17
2020/12/31 20:15:41;;;;;;;4.07;1.75;;;;;;;;;;4893796;29;20045;-17
2020/12/31 20:18:06;;;;;;;2.35;1.60;;;;;;;;;;4893563;29;20029;-17
2020/12/31 20:20:32;;;;;;;5.78;1.92;;;;;;;;;;4893779;29;20021;-16
2020/12/31 20:22:57;;;;;;;2.60;1.95;;;;;;;;;;4893245;29;20032;-16
2020/12/31 20:25:23;;;;;;;2.72;1.90;;;;;;;;;;4876667;29;20064;-18
2020/12/31 20:27:48;;;;;;;2.60;2.00;;;;;;;;;;4894147;29;20115;-16
2020/12/31 20:30:15;;;;;;;3.45;1.70;;;;;;;;;;4893851;29;20032;-16
2020/12/31 20:32:41;;;;;;;4.38;2.80;;;;;;;;;;4877743;29;20039;-17
2020/12/31 20:35:06;;;;;;;3.60;2.10;;;;;;;;;;4880448;29;20029;-16
2020/12/31 20:37:32;;;;;;;3.13;1.92;;;;;;;;;;4897850;29;20039;-16
2020/12/31 20:39:59;;;;;;;2.25;1.75;;;;;;;;;;4897316;29;20431;-17
2020/12/31 20:42:25;;;;;;;2.75;1.67;;;;;;;;;;4897465;29;20017;-17
2020/12/31 20:44:51;;;;;;;2.40;1.77;;;;;;;;;;4897873;29;20028;-16
2020/12/31 20:47:16;;;;;;;4.72;2.08;;;;;;;;;;4896957;29;20115;-17
2020/12/31 20:49:41;;;;;;;2.60;1.77;;;;;;;;;;4897338;29;20080;-17
2020/12/31 20:52:07;;;;;;;2.90;1.77;;;;;;;;;;4897716;29;20574;-16
2020/12/31 20:54:33;;;;;;;2.78;1.60;;;;;;;;;;4880425;29;20593;-16
2020/12/31 20:57:01;;;;;;;6.88;2.00;;;;;;;;;;4880097;29;20678;-17
2020/12/31 20:59:31;;;;;;;5.13;2.38;;;;;;;;;;4879738;29;20387;-16
2020/12/31 21:01:57;;;;;;;2.40;1.77;;;;;;;;;;4896942;29;20494;-17
2020/12/31 21:04:22;;;;;;;2.38;1.67;;;;;;;;;;4897222;29;20032;-17
2020/12/31 21:06:48;;;;;;;3.17;1.63;;;;;;;;;;4880277;29;20069;-27
2020/12/31 21:09:13;;;;;;;1.80;1.42;;;;;;;;;;4879795;29;20760;-16
2020/12/31 21:11:39;;;;;;;3.22;1.90;;;;;;;;;;4896539;29;20057;-16
2020/12/31 21:14:04;;;;;;;2.20;1.65;;;;;;;;;;4896834;29;20048;-17
2020/12/31 21:16:31;;;;;;;3.65;1.90;;;;;;;;;;4880117;29;20115;-16
2020/12/31 21:18:56;;;;;;;2.08;1.52;;;;;;;;;;4880015;29;20502;-17
2020/12/31 21:21:21;;;;;;;1.83;1.70;;;;;;;;;;4897257;29;20033;-16
2020/12/31 21:23:49;;;;;;;2.38;1.40;;;;;;;;;;4863971;29;20028;-16
2020/12/31 21:26:15;;;;;;;8.95;4.28;;;;;;;;;;4896960;29;20087;-21
2020/12/31 21:28:41;;;;;;;10.68;5.18;;;;;;;;;;4896478;29;20020;-16
2020/12/31 21:31:10;;;;;;;20.45;7.63;;;;;;;;;;4896500;29;20496;-17
2020/12/31 21:33:37;;;;;;;4.00;1.58;;;;;;;;;;4879889;29;20044;-16
2020/12/31 21:36:02;;;;;;;3.22;1.67;;;;;;;;;;4896315;29;20035;-16
2020/12/31 21:38:28;;;;;;;3.28;1.85;;;;;;;;;;4896683;29;20772;-17
2020/12/31 21:40:54;;;;;;;14.20;4.55;;;;;;;;;;4880559;29;20033;-17
2020/12/31 21:43:20;;;;;;;3.75;2.45;;;;;;;;;;4897109;29;20024;-16
2020/12/31 21:45:46;;;;;;;3.53;2.90;;;;;;;;;;4897236;29;20036;-16
2020/12/31 21:48:11;;;;;;;8.48;2.35;;;;;;;;;;4896166;29;20017;-16
2020/12/31 21:50:37;;;;;;;3.20;1.90;;;;;;;;;;4896547;29;20036;-17
2020/12/31 21:53:02;;;;;;;4.22;2.10;;;;;;;;;;4880080;29;20622;-21
2020/12/31 21:55:27;;;;;;;4.30;1.95;;;;;;;;;;4896663;29;20047;-16
2020/12/31 21:57:53;;;;;;;5.63;2.38;;;;;;;;;;4879922;29;20551;-16
2020/12/31 22:00:20;;;;;;;10.75;2.38;;;;;;;;;;4895994;29;20040;-16
2020/12/31 22:02:45;;;;;;;10.95;2.72;;;;;;;;;;4879192;29;20481;-16
2020/12/31 22:05:11;;;;;;;6.68;2.92;;;;;;;;;;4896208;29;20046;-16
2020/12/31 22:07:37;;;;;;;5.40;4.03;;;;;;;;;;4897439;29;20054;-16
2020/12/31 22:10:03;;;;;;;7.85;4.10;;;;;;;;;;4896385;29;20431;-16
2020/12/31 22:12:29;;;;;;;24.95;7.70;;;;;;;;;;4895536;29;20052;-16
2020/12/31 22:14:55;;;;;;;20.27;7.22;;;;;;;;;;4896383;29;20376;-23
2020/12/31 22:17:20;;;;;;;36.22;10.95;;;;;;;;;;4871491;29;20056;-16
2020/12/31 22:19:46;;;;;;;43.08;13.68;;;;;;;;;;4895619;29;20123;-16
2020/12/31 22:22:11;;;;;;;19.38;6.78;;;;;;;;;;4878666;29;20080;-16
2020/12/31 22:24:37;;;;;;;23.73;8.30;;;;;;;;;;4895509;29;20041;-16
2020/12/31 22:27:02;;;;;;;24.77;8.27;;;;;;;;;;4895792;29;20048;-16
2020/12/31 22:29:28;;;;;;;22.48;8.07;;;;;;;;;;4895944;29;20037;-16
2020/12/31 22:31:54;;;;;;;18.05;6.97;;;;;;;;;;4895867;29;20064;-16
2020/12/31 22:34:19;;;;;;;21.38;8.82;;;;;;;;;;4878380;29;20048;-16
2020/12/31 22:36:45;;;;;;;13.98;6.65;;;;;;;;;;4895326;29;20021;-16
2020/12/31 22:39:13;;;;;;;14.13;5.88;;;;;;;;;;4878639;29;20041;-16
2020/12/31 22:41:39;;;;;;;13.80;6.57;;;;;;;;;;4895285;29;20514;-22
2020/12/31 22:44:04;;;;;;;15.80;6.55;;;;;;;;;;4895492;29;20039;-17
2020/12/31 22:46:30;;;;;;;15.55;6.68;;;;;;;;;;4894664;29;20028;-17
2020/12/31 22:48:55;;;;;;;11.38;5.13;;;;;;;;;;4895096;29;20064;-17